Time;durP1;ratioP1;P1;durP2;ratioP2;P2;SDS_P1;SDS_P2;PMS_P1;PMS_P2;Temp;Humidity;BMP_temperature;BMP_pressure;BME280_temperature;BME280_humidity;BME280_pressure;Samples;Min_cycle;Max_cycle;Signal;HPM_P1;HPM_P2
2022/04/11 00:01:40;;;;;;;12.73;3.20;;;6.80;70.70;;;;;;2274610;59;21115;-83
2022/04/11 00:04:07;;;;;;;6.07;2.67;;;6.80;70.60;;;;;;2505506;55;21067;-83
2022/04/11 00:06:34;;;;;;;9.38;2.85;;;6.80;70.40;;;;;;2504818;55;21170;-83
2022/04/11 00:09:01;;;;;;;10.35;3.20;;;6.80;70.50;;;;;;2274419;59;21606;-83
2022/04/11 00:11:29;;;;;;;9.05;2.62;;;6.70;70.60;;;;;;2505602;55;21078;-83
2022/04/11 00:13:56;;;;;;;5.78;2.47;;;6.70;70.60;;;;;;2274997;59;21098;-83
2022/04/11 00:16:23;;;;;;;9.05;2.70;;;6.70;70.50;;;;;;2506060;55;21035;-83
2022/04/11 00:18:51;;;;;;;10.25;4.82;;;6.70;70.50;;;;;;2506328;55;21118;-84
2022/04/11 00:21:19;;;;;;;9.15;2.70;;;6.70;70.40;;;;;;2506147;55;21070;-82
2022/04/11 00:23:46;;;;;;;11.23;4.35;;;6.70;70.60;;;;;;2275272;59;21127;-83
2022/04/11 00:26:13;;;;;;;5.93;3.10;;;6.70;70.60;;;;;;2274285;59;21126;-83
2022/04/11 00:28:41;;;;;;;5.80;2.75;;;6.70;71.30;;;;;;2505387;55;21720;-83
2022/04/11 00:31:08;;;;;;;8.63;2.58;;;6.70;70.30;;;;;;2275100;59;21098;-83
2022/04/11 00:33:35;;;;;;;10.35;2.85;;;6.60;70.50;;;;;;2505984;55;21135;-82
2022/04/11 00:36:02;;;;;;;11.70;2.78;;;6.60;70.30;;;;;;2505210;55;21615;-82
2022/04/11 00:38:29;;;;;;;6.97;2.25;;;6.60;70.50;;;;;;2505169;55;21154;-82
2022/04/11 00:40:57;;;;;;;5.45;2.58;;;6.60;70.50;;;;;;2273517;59;21062;-82
2022/04/11 00:43:31;;;;;;;7.30;2.70;;;6.60;70.60;;;;;;2505425;55;21071;-84
2022/04/11 00:45:59;;;;;;;7.93;2.53;;;6.60;70.70;;;;;;2505121;55;21031;-84
2022/04/11 00:48:26;;;;;;;7.40;2.42;;;6.60;70.90;;;;;;2505903;55;21051;-83
2022/04/11 00:50:59;;;;;;;7.07;2.50;;;6.60;70.90;;;;;;2506104;55;21035;-83
2022/04/11 00:53:27;;;;;;;9.02;2.70;;;6.50;70.60;;;;;;2275097;59;21068;-83
2022/04/11 00:55:57;;;;;;;6.25;2.55;;;6.60;70.50;;;;;;2505697;55;21139;-83
2022/04/11 00:58:26;;;;;;;9.00;2.53;;;6.60;70.30;;;;;;2505946;55;21083;-84
2022/04/11 01:00:53;;;;;;;10.65;2.70;;;6.50;70.20;;;;;;2274759;59;21075;-84
2022/04/11 01:03:21;;;;;;;6.20;2.37;;;6.50;70.50;;;;;;2506035;55;21063;-83
2022/04/11 01:05:49;;;;;;;4.00;2.25;;;6.60;70.70;;;;;;2274531;59;21123;-83
2022/04/11 01:08:18;;;;;;;5.55;2.50;;;6.50;70.80;;;;;;2506131;55;21118;-83
2022/04/11 01:10:46;;;;;;;9.40;2.45;;;6.50;70.80;;;;;;2274809;59;21059;-84
2022/04/11 01:13:13;;;;;;;9.85;2.97;;;6.40;70.70;;;;;;2275189;59;21119;-84
2022/04/11 01:15:41;;;;;;;13.73;3.00;;;6.50;70.70;;;;;;2505700;55;21108;-83
2022/04/11 01:18:08;;;;;;;6.10;3.20;;;6.40;70.70;;;;;;2505977;55;21146;-83
2022/04/11 01:20:35;;;;;;;8.15;2.58;;;6.50;70.80;;;;;;2274818;59;21059;-83
2022/04/11 01:23:02;;;;;;;5.82;3.12;;;6.50;70.60;;;;;;2505946;55;21110;-83
2022/04/11 01:25:30;;;;;;;4.47;2.40;;;6.50;70.50;;;;;;2274266;59;21035;-83
2022/04/11 01:28:00;;;;;;;9.10;2.50;;;6.50;70.40;;;;;;2274814;59;21150;-84
2022/04/11 01:30:28;;;;;;;8.68;2.65;;;6.40;70.20;;;;;;2506198;55;21075;-84
2022/04/11 01:32:55;;;;;;;7.03;2.70;;;6.40;70.30;;;;;;2274693;59;21066;-84
2022/04/11 01:35:25;;;;;;;8.20;2.90;;;6.40;70.50;;;;;;2505693;55;21062;-83
2022/04/11 01:37:53;;;;;;;6.62;2.90;;;6.40;70.60;;;;;;2505791;55;21051;-83
2022/04/11 01:40:20;;;;;;;6.85;2.75;;;6.30;70.70;;;;;;2505513;55;21039;-83
2022/04/11 01:42:48;;;;;;;5.85;2.25;;;6.30;70.70;;;;;;2506075;55;21058;-83
2022/04/11 01:45:16;;;;;;;8.80;2.78;;;6.30;70.70;;;;;;2505454;55;21126;-82
2022/04/11 01:47:43;;;;;;;7.47;3.92;;;6.30;70.70;;;;;;2506425;55;21078;-83
2022/04/11 01:50:11;;;;;;;12.93;3.80;;;6.30;70.70;;;;;;2506281;55;21075;-83
2022/04/11 01:52:38;;;;;;;8.85;2.92;;;6.30;70.50;;;;;;2505999;55;21134;-83
2022/04/11 01:55:07;;;;;;;8.25;2.92;;;6.30;70.50;;;;;;2505730;55;21134;-83
2022/04/11 01:57:34;;;;;;;9.30;2.50;;;6.30;70.40;;;;;;2505761;55;21043;-83
2022/04/11 02:00:01;;;;;;;10.15;3.17;;;6.30;70.50;;;;;;2506287;55;21091;-82
2022/04/11 02:02:28;;;;;;;7.40;2.58;;;6.30;70.50;;;;;;2505511;55;21131;-82
2022/04/11 02:04:56;;;;;;;22.10;5.97;;;6.30;70.60;;;;;;2274285;59;21055;-83
2022/04/11 02:07:23;;;;;;;5.68;2.87;;;6.30;70.60;;;;;;2274877;59;21090;-84
2022/04/11 02:09:50;;;;;;;7.40;2.53;;;6.20;70.50;;;;;;2506089;55;21063;-83
2022/04/11 02:12:17;;;;;;;12.07;2.92;;;6.30;70.60;;;;;;2274561;59;21070;-84
2022/04/11 02:14:44;;;;;;;7.12;3.20;;;6.20;70.40;;;;;;2505859;55;21092;-83
2022/04/11 02:17:11;;;;;;;4.18;2.47;;;6.20;70.20;;;;;;2274991;59;21086;-83
2022/04/11 02:19:39;;;;;;;8.18;3.30;;;6.20;70.40;;;;;;2504987;55;21079;-83
2022/04/11 02:22:06;;;;;;;7.07;2.85;;;6.20;70.40;;;;;;2274587;59;21058;-82
2022/04/11 02:24:33;;;;;;;5.12;2.50;;;6.20;70.10;;;;;;2274581;59;21067;-84
2022/04/11 02:27:00;;;;;;;10.70;3.12;;;6.10;70.70;;;;;;2274845;59;21114;-83
2022/04/11 02:29:27;;;;;;;9.40;3.10;;;6.10;70.70;;;;;;2274508;59;21062;-82
2022/04/11 02:31:54;;;;;;;7.45;3.12;;;6.10;71.00;;;;;;2275079;59;21071;-83
2022/04/11 02:34:22;;;;;;;5.75;2.75;;;6.10;71.10;;;;;;2505916;55;21059;-83
2022/04/11 02:36:49;;;;;;;5.82;3.00;;;6.10;71.20;;;;;;2504925;55;21052;-83
2022/04/11 02:39:16;;;;;;;4.78;2.70;;;6.10;71.10;;;;;;2506356;54;21070;-84
2022/04/11 02:41:43;;;;;;;5.62;2.75;;;6.10;71.00;;;;;;2274462;59;21043;-83
2022/04/11 02:44:11;;;;;;;7.75;3.03;;;6.00;70.90;;;;;;2505639;55;21055;-83
2022/04/11 02:46:38;;;;;;;4.18;2.40;;;6.10;70.90;;;;;;2274474;59;21062;-83
2022/04/11 02:49:07;;;;;;;7.18;2.70;;;6.00;70.80;;;;;;2274486;59;21058;-83
2022/04/11 02:51:34;;;;;;;8.70;2.80;;;6.00;70.90;;;;;;2505752;55;21055;-83
2022/04/11 02:54:07;;;;;;;11.80;2.83;;;6.10;71.00;;;;;;2274648;59;21134;-83
2022/04/11 02:56:33;;;;;;;;;;;6.00;70.90;;;;;;2509643;55;21048;-83
2022/04/11 02:59:00;;;;;;;5.20;2.15;;;6.10;71.00;;;;;;2505804;55;20105;-83
2022/04/11 03:01:28;;;;;;;5.37;2.42;;;6.00;70.40;;;;;;2505796;55;21059;-83
2022/04/11 03:03:56;;;;;;;5.30;2.35;;;6.00;70.70;;;;;;2505864;55;21055;-83
2022/04/11 03:06:23;;;;;;;8.20;2.95;;;5.90;70.80;;;;;;2274389;59;21606;-83
2022/04/11 03:08:50;;;;;;;10.60;4.30;;;5.90;70.90;;;;;;2505857;55;21099;-83
2022/04/11 03:11:18;;;;;;;11.63;3.62;;;5.90;70.90;;;;;;2274555;59;21090;-83
2022/04/11 03:13:47;;;;;;;12.18;3.22;;;5.90;70.90;;;;;;2274657;59;21074;-83
2022/04/11 03:16:14;;;;;;;6.50;2.58;;;5.90;70.70;;;;;;2274460;59;21066;-83
2022/04/11 03:18:41;;;;;;;7.90;2.62;;;5.90;70.90;;;;;;2274235;59;21626;-83
2022/04/11 03:21:09;;;;;;;9.65;3.50;;;5.90;70.90;;;;;;2505490;55;21095;-84
2022/04/11 03:23:36;;;;;;;6.68;3.12;;;5.90;70.90;;;;;;2505861;55;21122;-83
2022/04/11 03:26:03;;;;;;;7.87;3.20;;;5.90;70.80;;;;;;2505670;55;21401;-83
2022/04/11 03:28:30;;;;;;;7.60;2.80;;;5.90;70.70;;;;;;2274754;59;21179;-82
2022/04/11 03:30:59;;;;;;;8.65;2.80;;;5.90;70.70;;;;;;2506138;55;21047;-83
2022/04/11 03:33:26;;;;;;;6.20;2.25;;;5.90;70.80;;;;;;2505839;55;21079;-83
2022/04/11 03:35:53;;;;;;;8.13;2.92;;;5.90;70.90;;;;;;2273550;59;21122;-82
2022/04/11 03:38:21;;;;;;;4.40;2.42;;;5.90;70.90;;;;;;2274583;59;21066;-82
2022/04/11 03:40:48;;;;;;;5.60;2.47;;;5.90;71.80;;;;;;2505834;55;21063;-83
2022/04/11 03:43:15;;;;;;;6.65;3.28;;;5.80;70.90;;;;;;2505874;55;21532;-83
2022/04/11 03:45:42;;;;;;;5.18;2.30;;;5.80;70.70;;;;;;2505621;55;21067;-83
2022/04/11 03:48:09;;;;;;;5.28;2.90;;;5.80;70.70;;;;;;2506003;55;21863;-82
2022/04/11 03:50:37;;;;;;;8.57;3.40;;;5.80;70.50;;;;;;2505789;55;21059;-83
2022/04/11 03:53:05;;;;;;;8.25;3.20;;;5.80;70.60;;;;;;2273737;59;21067;-82
2022/04/11 03:55:32;;;;;;;8.27;2.65;;;5.80;70.70;;;;;;2274351;59;21059;-83
2022/04/11 03:57:59;;;;;;;6.35;2.90;;;5.80;70.80;;;;;;2274761;59;21123;-83
2022/04/11 04:00:26;;;;;;;5.57;2.90;;;5.80;70.90;;;;;;2274805;59;21051;-83
2022/04/11 04:02:54;;;;;;;4.62;2.45;;;5.80;71.10;;;;;;2505630;55;21115;-84
2022/04/11 04:05:21;;;;;;;10.60;3.78;;;5.80;71.40;;;;;;2505817;55;21060;-82
2022/04/11 04:07:48;;;;;;;6.57;3.40;;;5.80;71.60;;;;;;2274416;59;21134;-83
2022/04/11 04:10:15;;;;;;;8.32;3.12;;;5.80;71.60;;;;;;2273794;59;21066;-82
2022/04/11 04:12:42;;;;;;;9.35;3.00;;;5.90;72.50;;;;;;2274095;59;21047;-83
2022/04/11 04:15:10;;;;;;;12.43;5.18;;;5.90;71.70;;;;;;2273789;59;21126;-83
2022/04/11 04:17:37;;;;;;;6.55;2.85;;;5.90;71.60;;;;;;2274091;59;21051;-82
2022/04/11 04:20:07;;;;;;;5.28;2.42;;;5.90;71.50;;;;;;2274016;59;21177;-82
2022/04/11 04:22:35;;;;;;;9.40;3.42;;;5.90;71.50;;;;;;2274729;59;21118;-83
2022/04/11 04:25:03;;;;;;;9.70;3.05;;;5.90;71.40;;;;;;2505626;55;21090;-83
2022/04/11 04:27:30;;;;;;;6.70;3.40;;;5.90;71.30;;;;;;2274383;59;21146;-82
2022/04/11 04:29:57;;;;;;;6.65;3.10;;;5.90;71.10;;;;;;2505511;55;21082;-83
2022/04/11 04:32:24;;;;;;;7.90;2.87;;;6.00;71.00;;;;;;2505765;55;21048;-83
2022/04/11 04:34:51;;;;;;;9.90;2.90;;;5.90;70.60;;;;;;2505673;55;21128;-82
2022/04/11 04:37:19;;;;;;;5.47;2.55;;;5.90;70.60;;;;;;2504496;55;21115;-82
2022/04/11 04:39:46;;;;;;;6.32;3.45;;;5.90;70.40;;;;;;2272725;59;21125;-82
2022/04/11 04:42:19;;;;;;;12.18;3.47;;;5.90;70.40;;;;;;2272376;59;21054;-82
2022/04/11 04:44:46;;;;;;;6.03;3.58;;;5.90;70.50;;;;;;2272708;59;21059;-82
2022/04/11 04:47:15;;;;;;;5.93;2.92;;;5.90;71.20;;;;;;2503582;55;21054;-82
2022/04/11 04:49:43;;;;;;;8.23;3.25;;;5.80;70.20;;;;;;2272129;59;21082;-82
2022/04/11 04:52:10;;;;;;;7.45;3.35;;;5.90;70.10;;;;;;2272869;59;21586;-82
2022/04/11 04:54:37;;;;;;;6.78;3.40;;;5.80;69.90;;;;;;2272798;59;21143;-81
2022/04/11 04:57:05;;;;;;;9.65;3.30;;;5.90;69.90;;;;;;2503575;55;21138;-82
2022/04/11 04:59:33;;;;;;;7.75;3.50;;;5.80;69.90;;;;;;2272906;59;21055;-81
2022/04/11 05:02:00;;;;;;;10.15;2.92;;;5.80;70.00;;;;;;2503746;55;21059;-80
2022/04/11 05:04:28;;;;;;;8.50;3.62;;;5.80;70.10;;;;;;2272723;59;21141;-81
2022/04/11 05:06:55;;;;;;;7.47;3.20;;;5.80;70.20;;;;;;2502417;55;21067;-84
2022/04/11 05:09:22;;;;;;;9.77;3.05;;;5.80;70.30;;;;;;2272935;59;21067;-82
2022/04/11 05:11:49;;;;;;;16.52;3.75;;;5.80;70.30;;;;;;2272741;59;21054;-82
2022/04/11 05:14:16;;;;;;;10.85;3.40;;;5.80;70.30;;;;;;2272889;59;21067;-82
2022/04/11 05:16:44;;;;;;;6.82;3.45;;;5.80;70.40;;;;;;2501398;55;21098;-79
2022/04/11 05:19:11;;;;;;;10.27;3.40;;;5.80;70.50;;;;;;2498871;55;21150;-83
2022/04/11 05:21:39;;;;;;;10.30;3.70;;;5.80;70.50;;;;;;2501590;55;21983;-83
2022/04/11 05:24:07;;;;;;;6.78;3.85;;;5.80;70.70;;;;;;2501329;55;21630;-81
2022/04/11 05:26:35;;;;;;;15.63;4.43;;;5.80;70.90;;;;;;2498984;55;21071;-84
2022/04/11 05:29:03;;;;;;;8.75;3.83;;;5.80;71.00;;;;;;2501506;55;21118;-81
2022/04/11 05:31:31;;;;;;;8.05;3.97;;;5.80;71.20;;;;;;2500074;55;21139;-81
2022/04/11 05:34:01;;;;;;;9.35;3.72;;;5.80;71.40;;;;;;2500209;55;21115;-83
2022/04/11 05:36:29;;;;;;;7.40;3.05;;;5.90;71.80;;;;;;2500489;55;21612;-82
2022/04/11 05:38:56;;;;;;;7.40;4.25;;;5.90;71.50;;;;;;2500908;55;21801;-81
2022/04/11 05:41:24;;;;;;;8.48;3.37;;;5.90;71.60;;;;;;2500191;55;21067;-83
2022/04/11 05:43:51;;;;;;;8.15;3.47;;;5.90;71.60;;;;;;2500160;55;21078;-81
2022/04/11 05:46:18;;;;;;;10.98;3.70;;;5.90;71.70;;;;;;2501533;55;21322;-81
2022/04/11 05:48:46;;;;;;;8.00;3.45;;;6.00;71.80;;;;;;2500806;55;21147;-82
2022/04/11 05:51:13;;;;;;;14.45;4.35;;;6.00;71.80;;;;;;2500607;55;21074;-82
2022/04/11 05:53:41;;;;;;;8.00;5.05;;;6.00;71.70;;;;;;2500248;55;21070;-82
2022/04/11 05:56:09;;;;;;;8.23;3.40;;;6.00;71.70;;;;;;2502317;55;21135;-83
2022/04/11 05:58:36;;;;;;;7.62;3.30;;;6.00;71.80;;;;;;2502197;55;21269;-83
2022/04/11 06:01:04;;;;;;;6.87;3.87;;;6.10;71.90;;;;;;2501755;55;21091;-83
2022/04/11 06:03:31;;;;;;;9.57;3.85;;;6.10;71.80;;;;;;2502191;55;21175;-83
2022/04/11 06:05:59;;;;;;;12.45;4.25;;;6.10;71.80;;;;;;2501606;55;21083;-83
2022/04/11 06:08:26;;;;;;;8.88;3.95;;;6.10;71.90;;;;;;2500035;55;21086;-83
2022/04/11 06:10:54;;;;;;;6.00;3.37;;;6.20;71.70;;;;;;2501495;55;21339;-82
2022/04/11 06:13:21;;;;;;;10.02;4.37;;;6.20;71.40;;;;;;2500848;55;21659;-82
2022/04/11 06:15:49;;;;;;;6.45;3.92;;;6.20;71.70;;;;;;2501479;55;21071;-83
2022/04/11 06:18:16;;;;;;;7.85;3.92;;;6.30;72.00;;;;;;2501655;55;21087;-83
2022/04/11 06:20:45;;;;;;;12.15;3.30;;;6.30;72.10;;;;;;2500669;55;21190;-84
2022/04/11 06:23:13;;;;;;;6.70;3.37;;;6.30;71.70;;;;;;2502336;55;21162;-82
2022/04/11 06:25:40;;;;;;;6.15;3.53;;;6.40;71.70;;;;;;2501948;55;21562;-82
2022/04/11 06:28:08;;;;;;;9.85;3.87;;;6.40;71.40;;;;;;2502383;55;21147;-82
2022/04/11 06:30:35;;;;;;;9.65;3.87;;;6.40;71.30;;;;;;2502929;55;21162;-82
2022/04/11 06:33:03;;;;;;;10.90;3.37;;;6.50;71.00;;;;;;2502552;55;21638;-83
2022/04/11 06:35:30;;;;;;;8.77;4.12;;;6.50;71.40;;;;;;2502798;55;21387;-83
2022/04/11 06:37:58;;;;;;;9.48;3.78;;;6.50;71.60;;;;;;2503045;55;21067;-82
2022/04/11 06:40:25;;;;;;;7.35;3.47;;;6.50;72.00;;;;;;2503031;55;21078;-83
2022/04/11 06:42:53;;;;;;;8.35;3.58;;;6.60;72.40;;;;;;2501670;55;21138;-82
2022/04/11 06:45:20;;;;;;;7.82;3.58;;;6.60;72.50;;;;;;2502178;55;21986;-81
2022/04/11 06:47:48;;;;;;;15.23;3.90;;;6.60;72.70;;;;;;2503166;55;21067;-84
2022/04/11 06:50:15;;;;;;;10.02;3.42;;;6.70;73.00;;;;;;2503002;55;21091;-81
2022/04/11 06:52:43;;;;;;;11.25;4.05;;;6.80;73.20;;;;;;2501877;55;21143;-82
2022/04/11 06:55:11;;;;;;;10.02;4.43;;;6.80;73.00;;;;;;2501694;55;21137;-82
2022/04/11 06:57:38;;;;;;;12.95;4.00;;;6.90;73.00;;;;;;2502628;55;21674;-83
2022/04/11 07:00:08;;;;;;;11.85;4.00;;;6.90;73.10;;;;;;2501841;55;21678;-81
2022/04/11 07:02:37;;;;;;;9.05;3.75;;;6.90;73.20;;;;;;2502131;55;21138;-84
2022/04/11 07:05:06;;;;;;;13.35;4.30;;;7.00;73.20;;;;;;2503398;55;21075;-82
2022/04/11 07:07:37;;;;;;;7.12;3.05;;;7.00;73.00;;;;;;2503130;55;21063;-83
2022/04/11 07:10:09;;;;;;;15.50;4.15;;;7.10;72.90;;;;;;2503252;55;21126;-83
2022/04/11 07:12:39;;;;;;;6.30;3.60;;;7.10;72.90;;;;;;2503295;55;21146;-83
2022/04/11 07:17:44;;;;;;;8.48;3.30;;;7.20;72.70;;;;;;2327095;57;22047;-73
2022/04/11 07:20:13;;;;;;;8.38;3.72;;;7.30;72.80;;;;;;2347212;57;21049;-75
2022/04/11 07:22:41;;;;;;;8.52;3.30;;;7.30;72.90;;;;;;2346551;57;21061;-74
2022/04/11 07:25:09;;;;;;;6.80;3.83;;;7.40;73.00;;;;;;2346907;57;21157;-74
2022/04/11 07:27:37;;;;;;;10.55;4.53;;;7.40;73.10;;;;;;2345561;57;21050;-74
2022/04/11 07:30:06;;;;;;;9.40;3.50;;;7.50;73.00;;;;;;2345937;57;21033;-74
2022/04/11 07:32:33;;;;;;;12.35;4.15;;;7.50;72.90;;;;;;2592991;53;21050;-73
2022/04/11 07:35:00;;;;;;;9.57;3.83;;;7.60;72.90;;;;;;2345160;57;21125;-76
2022/04/11 07:37:28;;;;;;;9.20;3.55;;;7.70;72.90;;;;;;2345400;57;21038;-75
2022/04/11 07:39:55;;;;;;;10.73;4.03;;;7.70;72.70;;;;;;2343262;57;21054;-74
2022/04/11 07:42:22;;;;;;;11.32;3.97;;;7.80;72.50;;;;;;2345580;57;21169;-75
2022/04/11 07:44:50;;;;;;;11.15;3.67;;;7.90;72.60;;;;;;2345954;57;21615;-74
2022/04/11 07:47:17;;;;;;;13.07;3.92;;;7.90;72.70;;;;;;2345106;57;21038;-74
2022/04/11 07:49:44;;;;;;;12.25;4.53;;;8.00;73.30;;;;;;2346004;57;21086;-74
2022/04/11 07:52:12;;;;;;;9.32;4.15;;;8.10;72.20;;;;;;2345944;57;21113;-75
2022/04/11 07:57:16;;;;;;;10.05;4.20;;;8.20;72.20;;;;;;2370517;56;22605;-72
2022/04/11 07:59:43;;;;;;;9.27;3.62;;;8.30;72.30;;;;;;2361404;57;21178;-74
2022/04/11 08:02:11;;;;;;;12.35;4.07;;;8.30;72.20;;;;;;2611600;52;22363;-76
2022/04/11 08:04:38;;;;;;;7.45;3.67;;;8.30;72.10;;;;;;2361102;57;21389;-74
2022/04/11 08:07:05;;;;;;;11.98;3.87;;;8.40;72.20;;;;;;2541924;53;21164;-75
2022/04/11 08:09:33;;;;;;;12.88;3.78;;;8.50;71.90;;;;;;2335028;57;21215;-74
2022/04/11 08:12:00;;;;;;;7.57;3.75;;;8.60;71.90;;;;;;2335298;57;21056;-73
2022/04/11 08:14:27;;;;;;;12.80;4.07;;;8.60;72.00;;;;;;2577454;53;21061;-74
2022/04/11 08:16:54;;;;;;;9.38;3.85;;;8.60;71.70;;;;;;2606022;53;21105;-75
2022/04/11 08:19:22;;;;;;;12.68;3.83;;;8.70;71.20;;;;;;2613006;53;21551;-78
2022/04/11 08:21:49;;;;;;;9.45;3.25;;;8.70;71.10;;;;;;2362647;57;21041;-76
2022/04/11 08:24:16;;;;;;;10.70;3.05;;;8.70;71.00;;;;;;2362458;57;21573;-75
2022/04/11 08:26:44;;;;;;;8.55;3.37;;;8.80;70.30;;;;;;2362137;57;21118;-76
2022/04/11 08:29:11;;;;;;;6.78;2.97;;;8.80;70.10;;;;;;2360776;57;21067;-76
2022/04/11 08:31:38;;;;;;;6.37;3.10;;;8.90;69.30;;;;;;2361870;57;21544;-74
2022/04/11 08:34:05;;;;;;;7.78;3.55;;;8.90;69.60;;;;;;2613179;53;21145;-75
2022/04/11 08:36:33;;;;;;;11.05;3.53;;;9.00;69.50;;;;;;2361825;57;21062;-76
2022/04/11 08:39:00;;;;;;;9.63;3.00;;;9.00;69.10;;;;;;2612533;53;21564;-75
2022/04/11 08:41:32;;;;;;;10.57;3.30;;;9.00;69.30;;;;;;2362350;57;21062;-74
2022/04/11 08:44:01;;;;;;;11.50;2.87;;;9.10;68.60;;;;;;2613595;53;21046;-74
2022/04/11 08:46:30;;;;;;;11.20;2.65;;;9.20;68.90;;;;;;2359785;57;21723;-73
2022/04/11 08:48:57;;;;;;;8.82;3.95;;;9.20;68.20;;;;;;2362134;57;21137;-73
2022/04/11 08:51:24;;;;;;;6.85;3.10;;;9.30;67.90;;;;;;2362413;57;21050;-74
2022/04/11 08:53:53;;;;;;;9.77;2.95;;;9.40;68.10;;;;;;2613377;53;21123;-74
2022/04/11 08:56:20;;;;;;;10.20;2.97;;;9.50;68.10;;;;;;2361907;57;21066;-75
2022/04/11 08:58:47;;;;;;;11.80;3.60;;;9.50;68.20;;;;;;2362636;57;21051;-76
2022/04/11 09:01:14;;;;;;;8.32;3.00;;;9.60;68.20;;;;;;2612605;53;21047;-74
2022/04/11 09:03:43;;;;;;;6.57;2.70;;;9.70;68.00;;;;;;2361368;57;21141;-75
2022/04/11 09:06:14;;;;;;;7.28;3.00;;;9.80;67.60;;;;;;2360990;57;21063;-73
2022/04/11 09:08:48;;;;;;;11.27;3.33;;;9.90;67.00;;;;;;2361198;57;21138;-75
2022/04/11 09:11:29;;;;;;;10.60;3.22;;;10.00;66.00;;;;;;2361289;57;21105;-75
2022/04/11 09:13:57;;;;;;;4.90;2.40;;;10.00;64.90;;;;;;2361311;57;21117;-74
2022/04/11 09:16:24;;;;;;;8.52;2.97;;;10.10;64.90;;;;;;2360774;57;21061;-75
2022/04/11 09:18:54;;;;;;;7.25;2.58;;;10.20;65.00;;;;;;2609524;53;21042;-74
2022/04/11 09:21:24;;;;;;;8.30;2.37;;;10.30;65.00;;;;;;2361073;57;21080;-74
2022/04/11 09:24:12;;;;;;;9.73;2.90;;;10.30;64.50;;;;;;2360942;57;21062;-74
2022/04/11 09:26:40;;;;;;;7.45;2.47;;;10.30;62.30;;;;;;2361027;57;21062;-74
2022/04/11 09:29:08;;;;;;;6.37;2.42;;;10.40;63.50;;;;;;2361872;57;21126;-74
2022/04/11 09:31:36;;;;;;;10.18;2.72;;;10.50;64.00;;;;;;2361249;57;21138;-73
2022/04/11 09:34:15;;;;;;;7.28;2.42;;;10.50;63.60;;;;;;2360767;57;21054;-74
2022/04/11 09:36:51;;;;;;;12.30;2.85;;;10.60;62.70;;;;;;2610443;53;21058;-74
2022/04/11 09:39:21;;;;;;;7.65;2.60;;;10.60;62.00;;;;;;2360961;57;21071;-73
2022/04/11 09:41:49;;;;;;;13.05;2.78;;;10.60;61.10;;;;;;2361530;57;21050;-73
2022/04/11 09:44:24;;;;;;;9.23;2.20;;;10.60;61.20;;;;;;2361418;57;21150;-73
2022/04/11 09:46:52;;;;;;;9.68;3.42;;;10.60;61.30;;;;;;2611740;53;21054;-74
2022/04/11 09:49:19;;;;;;;4.75;2.12;;;10.50;61.40;;;;;;2361453;57;21125;-73
2022/04/11 09:52:09;;;;;;;9.18;2.50;;;10.50;61.50;;;;;;2359490;57;21054;-74
2022/04/11 09:54:38;;;;;;;11.90;3.00;;;10.50;61.90;;;;;;2360922;57;21141;-73
2022/04/11 09:57:07;;;;;;;11.12;3.03;;;10.60;62.00;;;;;;2361315;57;21133;-73
2022/04/11 09:59:35;;;;;;;4.43;3.20;;;10.70;62.00;;;;;;2361279;57;21139;-73
2022/04/11 10:02:03;;;;;;;9.60;2.30;;;10.80;60.90;;;;;;2610984;53;21054;-72
2022/04/11 10:04:30;;;;;;;7.50;2.50;;;10.80;61.60;;;;;;2361632;57;21070;-73
2022/04/11 10:06:58;;;;;;;9.98;2.50;;;10.80;60.10;;;;;;2360873;57;21062;-73
2022/04/11 10:09:25;;;;;;;11.63;2.72;;;10.90;59.40;;;;;;2359081;57;21082;-73
2022/04/11 10:11:54;;;;;;;7.70;2.50;;;11.00;59.30;;;;;;2360686;57;21058;-73
2022/04/11 10:14:24;;;;;;;6.65;2.20;;;11.00;59.00;;;;;;2361464;57;21042;-73
2022/04/11 10:16:53;;;;;;;9.30;2.47;;;11.10;58.90;;;;;;2360279;57;21081;-73
2022/04/11 10:19:29;;;;;;;6.20;2.67;;;11.10;58.90;;;;;;2361637;57;21110;-73
2022/04/11 10:21:59;;;;;;;5.15;2.60;;;11.10;58.70;;;;;;2361579;57;21177;-73
2022/04/11 10:24:33;;;;;;;6.12;2.35;;;11.10;58.40;;;;;;2361826;57;21150;-73
2022/04/11 10:27:14;;;;;;;;;;;11.00;59.10;;;;;;2612696;53;21042;-72
2022/04/11 10:29:42;;;;;;;9.00;2.08;;;11.10;59.60;;;;;;2361571;57;20130;-72
2022/04/11 10:32:11;;;;;;;7.25;2.70;;;11.10;59.30;;;;;;2361190;57;21213;-73
2022/04/11 10:34:51;;;;;;;6.75;2.85;;;11.10;59.70;;;;;;2361482;57;21062;-73
2022/04/11 10:37:20;;;;;;;6.20;2.30;;;11.10;60.30;;;;;;2361136;57;21572;-73
2022/04/11 10:39:48;;;;;;;7.55;3.00;;;11.10;59.90;;;;;;2361672;57;21103;-73
2022/04/11 10:42:17;;;;;;;7.55;3.20;;;11.00;59.40;;;;;;2361316;57;21035;-72
2022/04/11 10:44:46;;;;;;;6.45;2.90;;;11.00;59.60;;;;;;2358986;57;21106;-73
2022/04/11 10:47:27;;;;;;;5.85;2.33;;;11.00;59.90;;;;;;2360403;57;21113;-72
2022/04/11 10:53:24;;;;;;;5.60;3.12;;;11.10;59.40;;;;;;2355545;57;22537;-73
2022/04/11 10:55:56;;;;;;;6.22;2.92;;;11.30;59.10;;;;;;2356703;56;21134;-72
2022/04/11 10:58:39;;;;;;;10.77;2.75;;;11.30;58.80;;;;;;2374493;56;21039;-76
2022/04/11 11:01:06;;;;;;;4.10;1.90;;;11.40;59.10;;;;;;2625333;52;21050;-74
2022/04/11 11:03:34;;;;;;;3.62;1.95;;;11.50;59.30;;;;;;2628212;52;21134;-75
2022/04/11 11:06:17;;;;;;;3.67;2.47;;;11.60;58.90;;;;;;2374284;56;21039;-75
2022/04/11 11:08:46;;;;;;;7.05;2.30;;;11.70;58.80;;;;;;2374607;56;21114;-74
2022/04/11 11:11:24;;;;;;;5.62;2.12;;;11.70;58.20;;;;;;2374856;56;21533;-77
2022/04/11 11:13:54;;;;;;;6.85;2.45;;;11.70;57.60;;;;;;2374950;56;22074;-77
2022/04/11 11:19:13;;;;;;;4.05;2.33;;;11.70;57.20;;;;;;2328014;57;22538;-73
2022/04/11 11:22:04;;;;;;;6.53;2.78;;;11.60;55.50;;;;;;2346937;57;21188;-73
2022/04/11 11:24:31;;;;;;;6.10;2.25;;;11.60;55.70;;;;;;2346927;57;21133;-75
2022/04/11 11:27:03;;;;;;;7.75;2.85;;;11.70;56.60;;;;;;2323187;57;21389;-76
2022/04/11 11:29:33;;;;;;;5.60;2.10;;;11.60;56.40;;;;;;2560345;54;21040;-76
2022/04/11 11:32:02;;;;;;;4.78;1.90;;;11.70;54.60;;;;;;2559870;54;21016;-75
2022/04/11 11:34:32;;;;;;;3.45;1.70;;;11.90;54.50;;;;;;2317913;58;21052;-77
2022/04/11 11:37:01;;;;;;;7.12;2.12;;;12.00;55.10;;;;;;2316537;58;21135;-76
2022/04/11 11:39:30;;;;;;;4.93;1.80;;;12.20;54.70;;;;;;2318815;58;21143;-76
2022/04/11 11:42:03;;;;;;;3.28;1.60;;;12.30;54.10;;;;;;2318755;58;21124;-75
2022/04/11 11:44:31;;;;;;;4.37;1.75;;;12.50;53.60;;;;;;2318231;58;21140;-74
2022/04/11 11:46:59;;;;;;;3.20;1.80;;;12.60;53.10;;;;;;2317858;58;21110;-75
2022/04/11 11:49:28;;;;;;;3.42;1.70;;;12.80;52.10;;;;;;2318222;58;21036;-76
2022/04/11 11:51:56;;;;;;;3.95;1.85;;;12.80;51.80;;;;;;2559323;54;21351;-75
2022/04/11 11:54:36;;;;;;;3.00;1.40;;;12.70;51.10;;;;;;2317545;58;21072;-75
2022/04/11 11:57:11;;;;;;;4.20;1.90;;;12.60;50.20;;;;;;2318375;58;21120;-72
2022/04/11 11:59:48;;;;;;;3.72;1.50;;;12.60;50.90;;;;;;2318553;58;21052;-72
2022/04/11 12:05:01;;;;;;;4.05;1.48;;;12.50;48.70;;;;;;2318693;58;21009;-73
2022/04/11 12:07:29;;;;;;;3.05;1.55;;;12.50;48.60;;;;;;2317501;58;21087;-73
2022/04/11 12:12:32;;;;;;;2.58;1.60;;;12.40;49.40;;;;;;2355252;57;22102;-73
2022/04/11 12:15:02;;;;;;;5.47;1.90;;;12.50;49.10;;;;;;2347839;56;21038;-71
2022/04/11 12:17:33;;;;;;;4.20;1.85;;;12.60;49.00;;;;;;2375010;56;21114;-72
2022/04/11 12:20:08;;;;;;;2.97;1.55;;;12.80;48.80;;;;;;2375624;56;21051;-75
2022/04/11 12:22:36;;;;;;;4.75;1.95;;;12.90;47.50;;;;;;2375508;56;21627;-73
2022/04/11 12:25:21;;;;;;;4.30;1.70;;;13.10;49.10;;;;;;2374602;56;21206;-73
2022/04/11 12:27:49;;;;;;;3.58;1.90;;;13.20;48.90;;;;;;2374287;56;21106;-71
2022/04/11 12:30:17;;;;;;;10.45;2.55;;;13.30;51.00;;;;;;2374965;56;21043;-72
2022/04/11 12:32:45;;;;;;;5.53;3.08;;;13.40;51.70;;;;;;2628639;52;21030;-73
2022/04/11 12:35:18;;;;;;;4.15;2.03;;;13.40;51.70;;;;;;2375127;56;21336;-72
2022/04/11 12:37:50;;;;;;;5.80;2.17;;;13.40;51.40;;;;;;2375377;56;21609;-73
2022/04/11 12:40:18;;;;;;;5.95;2.08;;;13.30;50.70;;;;;;2374538;56;21039;-72
2022/04/11 12:42:47;;;;;;;6.25;1.92;;;13.20;51.60;;;;;;2374778;56;21581;-73
2022/04/11 12:45:15;;;;;;;7.78;2.40;;;13.10;51.50;;;;;;2375175;56;21047;-71
2022/04/11 12:50:44;;;;;;;2.45;1.98;;;13.10;51.10;;;;;;2273883;59;22598;-71
2022/04/11 12:53:11;;;;;;;5.57;2.20;;;13.10;50.70;;;;;;2291785;58;21126;-72
2022/04/11 12:55:39;;;;;;;5.78;2.20;;;13.10;50.90;;;;;;2302272;57;21059;-72
2022/04/11 12:58:08;;;;;;;3.40;2.17;;;13.00;51.20;;;;;;2330850;57;21610;-71
2022/04/11 13:00:39;;;;;;;4.90;2.03;;;13.00;51.10;;;;;;2331350;57;21106;-72
2022/04/11 13:03:06;;;;;;;2.90;2.20;;;12.90;51.20;;;;;;2331244;57;21084;-74
2022/04/11 13:05:34;;;;;;;4.20;1.90;;;12.90;51.70;;;;;;2574230;53;21222;-75
2022/04/11 13:08:01;;;;;;;8.20;2.45;;;12.90;51.90;;;;;;2330563;57;21653;-74
2022/04/11 13:10:30;;;;;;;5.45;2.12;;;13.10;52.20;;;;;;2573074;53;21104;-76
2022/04/11 13:12:58;;;;;;;5.03;2.12;;;13.20;52.50;;;;;;2574783;53;21123;-77
2022/04/11 13:15:26;;;;;;;6.62;2.60;;;13.20;52.40;;;;;;2330466;57;21099;-76
2022/04/11 13:20:39;;;;;;;7.55;3.15;;;13.30;50.90;;;;;;2329450;57;21115;-75
2022/04/11 13:23:08;;;;;;;3.62;2.22;;;13.20;51.70;;;;;;2574394;53;21055;-74